WetterOnline ( https://www.wetteronline.at )

Wetter aktuell Berlin

Aktuelles Wetter: Berlin-Tempelhof (49m)

6-stündlich | Neueste Meldungen
Ortszeit Temperatur Wetter
Fr, 14.06. 2:00 10.9° C bewölkt
Do, 13.06. 20:00 17.7° C fast wolkenlos
Do, 13.06. 14:00 17.8° C wolkig
Do, 13.06. 8:00 12.5° C wolkig
Do, 13.06. 2:00 12.1° C bedeckt
Mi, 12.06. 20:00 15.6° C wolkig
Mi, 12.06. 14:00 15.2° C bedeckt
Mi, 12.06. 8:00 12.3° C wolkenlos
Ortszeit Temperatur Wetter
Fr, 14.06. 6:30 12.6° C bedeckt
Fr, 14.06. 6:20 12.6° C bedeckt
Fr, 14.06. 6:10 11.9° C bedeckt
Fr, 14.06. 6:00 11.5° C bedeckt
Fr, 14.06. 5:50 11.5° C bedeckt
Fr, 14.06. 5:40 11.4° C bedeckt
Fr, 14.06. 5:30 11.1° C bedeckt
Fr, 14.06. 5:00 10.9° C bedeckt
Fr, 14.06. 4:30 10.9° C bedeckt
Fr, 14.06. 4:00 11.0° C bedeckt
Fr, 14.06. 3:30 10.9° C bedeckt
Ortszeit Relative Feuchte Sichtweite
Fr, 14.06. 2:00 70% 55 km
Do, 13.06. 20:00 38% >70 km
Do, 13.06. 14:00 36% >70 km
Do, 13.06. 8:00 71% 55 km
Do, 13.06. 2:00 73% 65 km
Mi, 12.06. 20:00 50% 65 km
Mi, 12.06. 14:00 58% >70 km
Mi, 12.06. 8:00 72% 45 km
Ortszeit Relative Feuchte Sichtweite
Fr, 14.06. 6:30 65% 55 km
Fr, 14.06. 6:20 65% -
Fr, 14.06. 6:10 70% -
Fr, 14.06. 6:00 72% 65 km
Fr, 14.06. 5:50 72% -
Fr, 14.06. 5:40 72% -
Fr, 14.06. 5:30 73% 55 km
Fr, 14.06. 5:00 73% >70 km
Fr, 14.06. 4:30 72% 60 km
Fr, 14.06. 4:00 70% 65 km
Fr, 14.06. 3:30 70% 60 km
Ortszeit Niederschlagsmenge Niederschlagsart
Fr, 14.06. 2:00 0.0 l/m2 in 6 Std. -
Do, 13.06. 20:00 0.0 l/m2 in 12 Std. -
Do, 13.06. 14:00 0.0 l/m2 in 6 Std. -
Do, 13.06. 8:00 0.1 l/m2 in 12 Std. Niederschlag
Do, 13.06. 2:00 0.0 l/m2 in 6 Std. -
Mi, 12.06. 20:00 0.1 l/m2 in 12 Std. Niederschlag
Mi, 12.06. 14:00 0.1 l/m2 in 6 Std. Regen
Mi, 12.06. 8:00 0.1 l/m2 in 12 Std. -
Ortszeit Niederschlagsmenge Niederschlagsart
Fr, 14.06. 6:30 0.0 l/m2 in 30 Min -
Fr, 14.06. 6:20 keine Meldung -
Fr, 14.06. 6:10 keine Meldung -
Fr, 14.06. 6:00 0.0 l/m2 in 1 Std. -
Fr, 14.06. 5:50 keine Meldung -
Fr, 14.06. 5:40 keine Meldung -
Fr, 14.06. 5:30 0.0 l/m2 in 30 Min -
Fr, 14.06. 5:00 0.0 l/m2 in 1 Std. -
Fr, 14.06. 4:30 0.0 l/m2 in 30 Min -
Fr, 14.06. 4:00 0.0 l/m2 in 1 Std. -
Fr, 14.06. 3:30 0.0 l/m2 in 30 Min -
Ortszeit Stärke Spitze Richtung
km/h Bft. km/h Grad Sektor
Fr, 14.06. 2:00 2 1 20 180° S
Do, 13.06. 20:00 13 3 37 280° W
Do, 13.06. 14:00 18 3 36 270° W
Do, 13.06. 8:00 11 2 20 260° W
Do, 13.06. 2:00 7 2 22 250° W
Mi, 12.06. 20:00 14 3 43 270° W
Mi, 12.06. 14:00 11 2 40 260° W
Mi, 12.06. 8:00 9 2 17 200° S
Ortszeit Stärke Spitze Richtung
km/h Bft. km/h Grad Sektor
Fr, 14.06. 6:30 9 2 13 140° SO
Fr, 14.06. 6:20 9 2 - 140° SO
Fr, 14.06. 6:10 6 1 - 130° SO
Fr, 14.06. 6:00 7 2 14 120° SO
Fr, 14.06. 5:50 7 2 - 120° SO
Fr, 14.06. 5:40 7 2 - 130° SO
Fr, 14.06. 5:30 7 2 14 120° SO
Fr, 14.06. 5:00 7 2 7 130° SO
Fr, 14.06. 4:30 6 1 7 120° SO
Fr, 14.06. 4:00 7 2 7 120° SO
Fr, 14.06. 3:30 7 2 7 130° SO
Ortszeit Untergrenze Bedeckung Gattung
total tief tief mittel hoch
Fr, 14.06. 2:00 6300 m 8/8 7/8 - - -
Do, 13.06. 20:00 9000 m 1/8 0/8 - - -
Do, 13.06. 14:00 1500 m 6/8 6/8 - - -
Do, 13.06. 8:00 3000 m 5/8 5/8 - - -
Do, 13.06. 2:00 1800 m 8/8 8/8 - - -
Mi, 12.06. 20:00 2400 m 7/8 5/8 - - -
Mi, 12.06. 14:00 1500 m 8/8 8/8 - - -
Mi, 12.06. 8:00 - 0/8 0/8 - - -
Ortszeit Bedeckungsgrad in Achtel und Wolkenuntergrenze
Fr, 14.06. 6:30 8(3600m)
Fr, 14.06. 6:20 8(3600m)
Fr, 14.06. 6:10 8
Fr, 14.06. 6:00 8(3600m)
Fr, 14.06. 5:50 8(3600m)
Fr, 14.06. 5:40 8
Fr, 14.06. 5:30 8(3900m)
Fr, 14.06. 5:00 8(4200m)
Fr, 14.06. 4:30 8(4200m)
Fr, 14.06. 4:00 8(4500m)
Fr, 14.06. 3:30 8(4800m) 8(9000m) 8(10500m)
Ortszeit Luftdruck NN (hPa) Tendenz (hPa in 3 Std.)
Fr, 14.06. 2:00 1016 - 0,6
Do, 13.06. 20:00 1017 0,0
Do, 13.06. 14:00 1017 - 1,1
Do, 13.06. 8:00 1018 + 0,7
Do, 13.06. 2:00 1018 + 0,3
Mi, 12.06. 20:00 1016 - 0,2
Mi, 12.06. 14:00 1017 + 0,2
Mi, 12.06. 8:00 1017 + 0,9
Ortszeit Luftdruck NN (hPa) Tendenz (hPa in 3 Std.)
Fr, 14.06. 6:30 1015 - 0,8
Fr, 14.06. 6:20 1015 keine Meldung
Fr, 14.06. 6:10 1015 keine Meldung
Fr, 14.06. 6:00 1015 - 1,1
Fr, 14.06. 5:50 1015 keine Meldung
Fr, 14.06. 5:40 1015 keine Meldung
Fr, 14.06. 5:30 1015 - 1,2
Fr, 14.06. 5:00 1015 - 1,1
Fr, 14.06. 4:30 1015 - 1,1
Fr, 14.06. 4:00 1015 - 1,1
Fr, 14.06. 3:30 1015 - 1,1
Ortszeit Schneehöhe (cm)
Fr, 14.06. 2:00 0
Do, 13.06. 20:00 0
Do, 13.06. 14:00 0
Do, 13.06. 8:00 0
Do, 13.06. 2:00 0
Mi, 12.06. 20:00 0
Mi, 12.06. 14:00 0
Mi, 12.06. 8:00 0
Ortszeit Schneehöhe (cm)
Fr, 14.06. 6:30 0
Fr, 14.06. 6:20 0
Fr, 14.06. 6:10 -
Fr, 14.06. 6:00 0
Fr, 14.06. 5:50 0
Fr, 14.06. 5:40 -
Fr, 14.06. 5:30 0
Fr, 14.06. 5:00 0
Fr, 14.06. 4:30 0
Fr, 14.06. 4:00 0
Fr, 14.06. 3:30 0
Link zu dieser Seite / Seite empfehlen

Das Wetter in ...